Time;durP1;ratioP1;P1;durP2;ratioP2;P2;SDS_P1;SDS_P2;PMS_P1;PMS_P2;Temp;Humidity;BMP_temperature;BMP_pressure;BME280_temperature;BME280_humidity;BME280_pressure;Samples;Min_cycle;Max_cycle;Signal;HPM_P1;HPM_P2
2023/01/22 00:00:28;;;;;;;17.45;12.82;;;1.10;99.90;;;;;;5075957;28;20025;-68
2023/01/22 00:02:54;;;;;;;16.55;12.00;;;1.10;99.90;;;;;;5075755;28;20381;-67
2023/01/22 00:05:20;;;;;;;18.92;12.90;;;1.10;99.90;;;;;;5077077;28;20044;-68
2023/01/22 00:07:46;;;;;;;18.92;13.13;;;1.10;99.90;;;;;;5078348;28;20032;-68
2023/01/22 00:10:11;;;;;;;18.63;12.95;;;1.10;99.90;;;;;;5079204;28;20032;-67
2023/01/22 00:12:37;;;;;;;18.67;12.38;;;1.10;99.90;;;;;;5079042;28;20098;-68
2023/01/22 00:15:03;;;;;;;18.08;12.15;;;1.10;99.90;;;;;;5079001;28;20024;-67
2023/01/22 00:17:29;;;;;;;20.45;14.75;;;1.20;99.90;;;;;;5078718;28;20032;-67
2023/01/22 00:19:55;;;;;;;16.70;12.55;;;1.20;99.90;;;;;;5077633;28;20033;-67
2023/01/22 00:22:21;;;;;;;19.58;13.38;;;1.10;99.90;;;;;;5078299;28;20072;-68
2023/01/22 00:24:46;;;;;;;22.83;14.65;;;1.10;99.90;;;;;;5077280;28;20461;-68
2023/01/22 00:27:12;;;;;;;20.27;14.43;;;1.10;99.90;;;;;;5076371;28;20398;-68
2023/01/22 00:29:38;;;;;;;23.10;15.02;;;1.00;99.90;;;;;;5074818;28;20035;-67
2023/01/22 00:32:03;;;;;;;24.90;15.82;;;1.00;99.90;;;;;;5073934;28;20123;-67
2023/01/22 00:34:29;;;;;;;22.02;15.18;;;1.00;99.90;;;;;;5075233;28;20020;-67
2023/01/22 00:36:55;;;;;;;23.27;16.30;;;1.00;99.90;;;;;;5074862;28;20036;-67
2023/01/22 00:39:21;;;;;;;23.88;15.70;;;1.00;99.90;;;;;;5075078;28;20389;-67
2023/01/22 00:41:48;;;;;;;23.40;17.05;;;0.90;99.90;;;;;;5074608;28;20484;-67
2023/01/22 00:44:14;;;;;;;24.02;16.38;;;0.90;99.90;;;;;;5075193;28;20029;-68
2023/01/22 00:46:40;;;;;;;19.42;14.70;;;0.90;99.90;;;;;;5074466;28;20366;-68
2023/01/22 00:49:05;;;;;;;25.00;16.27;;;1.00;99.90;;;;;;5074621;28;20095;-67
2023/01/22 00:51:32;;;;;;;26.30;16.98;;;0.90;99.90;;;;;;5075452;28;20166;-67
2023/01/22 00:53:58;;;;;;;23.23;16.25;;;1.00;99.90;;;;;;5074566;28;20372;-68
2023/01/22 00:56:23;;;;;;;21.40;14.75;;;1.00;99.90;;;;;;5074630;28;20025;-67
2023/01/22 00:58:49;;;;;;;22.23;15.25;;;1.00;99.90;;;;;;5073665;28;20326;-68
2023/01/22 01:01:15;;;;;;;22.35;15.95;;;1.00;99.90;;;;;;5073511;28;20040;-67
2023/01/22 01:03:41;;;;;;;25.60;14.77;;;1.00;99.90;;;;;;5074161;28;20052;-67
2023/01/22 01:06:17;;;;;;;22.20;15.70;;;1.00;99.90;;;;;;5074491;28;20110;-67
2023/01/22 01:08:43;;;;;;;20.33;14.32;;;1.00;99.90;;;;;;5073534;28;20125;-68
2023/01/22 01:11:15;;;;;;;23.10;15.45;;;1.00;99.90;;;;;;5074412;28;20465;-67
2023/01/22 01:13:41;;;;;;;22.05;14.93;;;1.00;99.90;;;;;;5074158;28;20491;-68
2023/01/22 01:16:22;;;;;;;23.05;15.50;;;1.00;99.90;;;;;;5074219;28;20035;-67
2023/01/22 01:18:48;;;;;;;21.20;14.52;;;1.00;99.90;;;;;;5073855;28;20033;-68
2023/01/22 01:21:17;;;;;;;19.83;13.55;;;1.00;99.90;;;;;;5073775;28;20044;-67
2023/01/22 01:23:44;;;;;;;22.25;14.15;;;1.10;99.90;;;;;;5073728;28;20025;-68
2023/01/22 01:26:12;;;;;;;19.02;13.23;;;1.10;99.90;;;;;;5073826;28;20492;-67
2023/01/22 01:28:39;;;;;;;19.45;13.50;;;1.10;99.90;;;;;;5073334;28;20052;-68
2023/01/22 01:31:07;;;;;;;18.20;13.18;;;1.10;99.90;;;;;;5073698;28;20082;-68
2023/01/22 01:33:32;;;;;;;20.73;13.98;;;1.10;99.90;;;;;;5073937;28;20456;-68
2023/01/22 01:36:03;;;;;;;18.83;13.40;;;1.10;99.90;;;;;;5073581;28;20016;-68
2023/01/22 01:38:30;;;;;;;17.67;13.48;;;1.10;99.90;;;;;;5073951;28;20078;-68
2023/01/22 01:40:56;;;;;;;21.15;14.07;;;1.10;99.90;;;;;;5073605;28;20048;-68
2023/01/22 01:43:22;;;;;;;22.33;13.85;;;1.20;99.90;;;;;;5073711;28;20056;-67
2023/01/22 01:45:48;;;;;;;19.95;14.15;;;1.20;99.90;;;;;;5073652;28;20029;-67
2023/01/22 01:48:32;;;;;;;21.52;14.43;;;1.20;99.90;;;;;;5076527;28;20511;-67
2023/01/22 01:51:06;;;;;;;19.90;13.80;;;1.20;99.90;;;;;;5073183;28;20083;-68
2023/01/22 01:53:32;;;;;;;21.10;14.57;;;1.20;99.90;;;;;;5073604;28;20028;-67
2023/01/22 01:56:01;;;;;;;22.75;15.43;;;1.20;99.90;;;;;;5073102;28;20381;-68
2023/01/22 01:58:30;;;;;;;22.10;15.68;;;1.10;99.90;;;;;;5073347;28;20449;-68
2023/01/22 02:01:03;;;;;;;21.35;15.68;;;1.10;99.90;;;;;;5072652;28;20440;-68
2023/01/22 02:03:29;;;;;;;21.30;15.10;;;1.10;99.90;;;;;;5073272;28;20072;-67
2023/01/22 02:05:55;;;;;;;24.10;15.98;;;1.10;99.90;;;;;;5072903;28;20048;-68
2023/01/22 02:08:21;;;;;;;22.10;15.80;;;1.10;99.90;;;;;;5073164;28;20032;-67
2023/01/22 02:10:47;;;;;;;21.77;15.95;;;1.10;99.90;;;;;;5076380;28;20024;-68
2023/01/22 02:13:19;;;;;;;22.95;15.35;;;1.10;99.90;;;;;;5081547;28;20028;-68
2023/01/22 02:15:45;;;;;;;23.60;16.60;;;1.10;99.90;;;;;;5074048;28;20373;-68
2023/01/22 02:18:10;;;;;;;24.65;17.05;;;1.10;99.90;;;;;;5072897;28;20028;-67
2023/01/22 02:20:37;;;;;;;26.60;17.00;;;1.10;99.90;;;;;;5072632;28;20103;-67
2023/01/22 02:23:04;;;;;;;26.15;17.02;;;1.10;99.90;;;;;;5072280;28;20033;-68
2023/01/22 02:25:29;;;;;;;25.75;16.73;;;1.10;99.90;;;;;;5073060;28;20052;-68
2023/01/22 02:27:55;;;;;;;25.23;17.25;;;1.10;99.90;;;;;;5072376;28;20060;-68
2023/01/22 02:30:21;;;;;;;23.63;16.83;;;1.10;99.90;;;;;;5073169;28;20038;-68
2023/01/22 02:32:47;;;;;;;27.52;18.42;;;1.10;99.90;;;;;;5072234;28;20043;-68
2023/01/22 02:35:12;;;;;;;24.65;17.08;;;1.10;99.90;;;;;;5072951;28;20078;-68
2023/01/22 02:37:38;;;;;;;25.27;16.83;;;1.10;99.90;;;;;;5072900;28;20021;-68
2023/01/22 02:40:04;;;;;;;27.60;17.88;;;1.10;99.90;;;;;;5072254;28;20508;-68
2023/01/22 02:42:30;;;;;;;25.02;17.25;;;1.10;99.90;;;;;;5072696;28;20116;-68
2023/01/22 02:44:55;;;;;;;23.98;17.20;;;1.10;99.90;;;;;;5072440;28;20116;-68
2023/01/22 02:47:21;;;;;;;27.05;17.70;;;1.10;99.90;;;;;;5072802;28;20021;-68
2023/01/22 02:49:47;;;;;;;23.23;16.48;;;1.10;99.90;;;;;;5071224;28;20037;-68
2023/01/22 02:52:12;;;;;;;28.20;18.80;;;1.10;99.90;;;;;;5072986;28;20068;-68
2023/01/22 02:54:38;;;;;;;26.02;17.67;;;1.10;99.90;;;;;;5072385;28;20028;-68
2023/01/22 02:57:04;;;;;;;24.10;16.75;;;1.10;99.90;;;;;;5072494;28;20025;-68
2023/01/22 02:59:29;;;;;;;24.25;16.42;;;1.10;99.90;;;;;;5072353;28;20028;-68
2023/01/22 03:01:56;;;;;;;27.15;17.42;;;1.10;99.90;;;;;;5071696;28;20115;-67
2023/01/22 03:04:21;;;;;;;25.48;17.33;;;1.10;99.90;;;;;;5072512;28;20048;-68
2023/01/22 03:06:47;;;;;;;25.92;18.42;;;1.10;99.90;;;;;;5072202;28;20461;-68
2023/01/22 03:09:15;;;;;;;26.60;17.73;;;1.00;99.90;;;;;;5072034;28;20032;-68
2023/01/22 03:11:42;;;;;;;26.55;17.80;;;1.10;99.90;;;;;;5072610;28;20425;-67
2023/01/22 03:22:21;;;;;;;27.10;18.20;;;1.00;99.90;;;;;;5072368;28;20043;-67
2023/01/22 03:24:51;;;;;;;25.08;17.67;;;1.00;99.90;;;;;;5072581;28;20381;-67
2023/01/22 03:27:18;;;;;;;28.80;19.42;;;1.10;99.90;;;;;;5072740;28;20127;-67
2023/01/22 03:29:44;;;;;;;23.35;16.63;;;1.10;99.90;;;;;;5072307;28;20017;-68
2023/01/22 03:32:10;;;;;;;24.55;17.83;;;1.10;99.90;;;;;;5075884;28;20446;-68
2023/01/22 03:34:36;;;;;;;26.20;18.33;;;1.10;99.90;;;;;;5076098;28;20060;-68
2023/01/22 03:37:02;;;;;;;25.13;16.77;;;1.10;99.90;;;;;;5076001;28;20048;-68
2023/01/22 03:39:30;;;;;;;25.45;17.38;;;1.10;99.90;;;;;;5075923;28;20384;-68
2023/01/22 03:41:56;;;;;;;26.48;17.48;;;1.10;99.90;;;;;;5075766;28;20047;-68
2023/01/22 03:44:21;;;;;;;27.30;17.95;;;1.10;99.90;;;;;;5076213;28;20458;-68
2023/01/22 03:46:47;;;;;;;27.52;18.17;;;1.10;99.90;;;;;;5075522;28;20032;-68
2023/01/22 03:49:13;;;;;;;23.70;17.02;;;1.00;99.90;;;;;;5078785;28;20029;-68
2023/01/22 03:51:40;;;;;;;23.40;17.08;;;1.10;99.90;;;;;;5096276;28;20028;-68
2023/01/22 03:54:06;;;;;;;28.67;17.80;;;1.10;99.90;;;;;;5095661;28;20032;-68
2023/01/22 03:56:31;;;;;;;27.73;18.08;;;1.10;99.90;;;;;;5095790;28;20021;-68
2023/01/22 03:58:57;;;;;;;24.65;17.10;;;1.00;99.90;;;;;;5095338;28;20485;-68
2023/01/22 04:01:26;;;;;;;26.40;17.73;;;1.00;99.90;;;;;;5095606;28;20571;-68
2023/01/22 04:03:52;;;;;;;28.55;18.65;;;1.00;99.90;;;;;;5095354;28;20020;-68
2023/01/22 04:06:19;;;;;;;28.13;18.60;;;1.10;99.90;;;;;;5095742;28;20020;-68
2023/01/22 04:08:46;;;;;;;26.15;17.65;;;1.00;99.90;;;;;;5095800;28;20032;-68
2023/01/22 04:11:13;;;;;;;24.70;17.65;;;1.00;99.90;;;;;;5095328;28;20024;-68
2023/01/22 04:13:40;;;;;;;27.80;19.13;;;1.00;99.90;;;;;;5095752;28;20084;-68
2023/01/22 04:16:07;;;;;;;27.55;17.80;;;1.10;99.90;;;;;;5095054;28;20062;-68
2023/01/22 04:18:32;;;;;;;25.90;17.67;;;1.10;99.90;;;;;;5095609;28;20468;-68
2023/01/22 04:20:58;;;;;;;26.13;17.48;;;1.10;99.90;;;;;;5095196;28;20103;-68
2023/01/22 04:23:24;;;;;;;28.40;17.95;;;1.10;99.90;;;;;;5095219;28;20036;-68
2023/01/22 04:25:51;;;;;;;25.75;17.17;;;1.10;99.90;;;;;;5095050;28;20052;-68
2023/01/22 04:28:17;;;;;;;29.05;17.88;;;1.10;99.90;;;;;;5095291;28;20036;-68
2023/01/22 04:30:45;;;;;;;27.60;17.33;;;1.10;99.90;;;;;;5095128;28;20472;-68
2023/01/22 04:33:11;;;;;;;26.70;17.70;;;1.10;99.90;;;;;;5094863;28;20072;-68
2023/01/22 04:35:38;;;;;;;27.67;17.65;;;1.10;99.90;;;;;;5095697;28;20062;-68
2023/01/22 04:38:05;;;;;;;23.48;16.95;;;1.00;99.90;;;;;;5095015;28;20032;-68
2023/01/22 04:40:31;;;;;;;24.67;17.20;;;1.00;99.90;;;;;;5095174;28;20052;-68
2023/01/22 04:43:01;;;;;;;25.20;17.38;;;1.10;99.90;;;;;;5093352;28;20444;-68
2023/01/22 04:45:27;;;;;;;25.42;17.52;;;1.10;99.90;;;;;;5095033;28;20024;-68
2023/01/22 04:47:52;;;;;;;29.70;18.35;;;1.10;99.90;;;;;;5094648;28;20038;-68
2023/01/22 04:50:21;;;;;;;26.58;17.90;;;1.00;99.90;;;;;;5094944;28;20020;-68
2023/01/22 04:52:49;;;;;;;26.17;17.58;;;1.00;99.90;;;;;;5095024;28;20066;-68
2023/01/22 04:55:15;;;;;;;25.98;17.92;;;1.10;99.90;;;;;;5094731;28;20027;-68
2023/01/22 04:57:41;;;;;;;25.90;17.00;;;1.10;99.90;;;;;;5093730;28;20028;-68
2023/01/22 05:00:08;;;;;;;25.88;17.92;;;1.10;99.90;;;;;;5094180;28;20438;-68
2023/01/22 05:02:33;;;;;;;25.65;17.38;;;1.10;99.90;;;;;;5094665;28;20043;-68
2023/01/22 05:04:59;;;;;;;26.02;17.42;;;1.10;99.90;;;;;;5092991;28;20024;-68
2023/01/22 05:07:25;;;;;;;25.95;16.80;;;1.10;99.90;;;;;;5094409;28;20031;-69
2023/01/22 05:09:50;;;;;;;25.02;16.63;;;1.10;99.90;;;;;;5094617;28;20023;-68
2023/01/22 05:12:16;;;;;;;26.42;16.88;;;1.10;99.90;;;;;;5093845;28;20110;-68
2023/01/22 05:14:42;;;;;;;26.13;16.63;;;1.10;99.90;;;;;;5094558;28;20036;-67
2023/01/22 05:17:07;;;;;;;25.13;16.88;;;1.10;99.90;;;;;;5089713;28;20024;-66
2023/01/22 05:19:34;;;;;;;26.55;17.80;;;1.10;99.90;;;;;;5074151;28;20512;-67
2023/01/22 05:22:00;;;;;;;26.80;17.02;;;1.10;99.90;;;;;;5073774;28;20093;-69
2023/01/22 05:24:26;;;;;;;25.67;15.95;;;1.10;99.90;;;;;;5074180;28;20032;-67
2023/01/22 05:26:51;;;;;;;26.05;17.25;;;1.10;99.90;;;;;;5056466;28;20029;-66
2023/01/22 05:29:17;;;;;;;25.85;17.23;;;1.10;99.90;;;;;;5073713;28;20025;-66
2023/01/22 05:31:43;;;;;;;24.63;17.08;;;1.10;99.90;;;;;;5074375;28;20039;-67
2023/01/22 05:34:08;;;;;;;26.23;16.80;;;1.10;99.90;;;;;;5077618;28;20042;-69
2023/01/22 05:36:34;;;;;;;26.10;17.42;;;1.10;99.90;;;;;;5074852;28;20020;-69
2023/01/22 05:39:00;;;;;;;28.83;17.15;;;1.10;99.90;;;;;;5073747;28;20028;-69
2023/01/22 05:41:26;;;;;;;27.15;17.73;;;1.10;99.90;;;;;;5073973;28;20024;-68
2023/01/22 05:43:51;;;;;;;25.58;17.33;;;1.10;99.90;;;;;;5073770;28;20024;-68
2023/01/22 05:46:17;;;;;;;26.48;17.27;;;1.10;99.90;;;;;;5073135;28;20025;-68
2023/01/22 05:48:42;;;;;;;25.67;17.20;;;1.10;99.90;;;;;;5073712;28;20426;-68
2023/01/22 05:51:09;;;;;;;26.50;17.40;;;1.10;99.90;;;;;;5073249;28;20036;-69
2023/01/22 05:53:35;;;;;;;24.52;16.85;;;1.10;99.90;;;;;;5072389;28;20484;-68
2023/01/22 05:56:02;;;;;;;27.25;17.85;;;1.10;99.90;;;;;;5073125;28;20020;-68
2023/01/22 05:58:30;;;;;;;27.40;18.20;;;1.10;99.90;;;;;;5075838;28;20020;-68
2023/01/22 06:00:56;;;;;;;29.55;18.48;;;1.00;99.90;;;;;;5073682;28;20071;-68
2023/01/22 06:03:22;;;;;;;30.35;18.60;;;1.00;99.90;;;;;;5072985;28;20393;-68
2023/01/22 06:05:56;;;;;;;27.45;18.15;;;1.00;99.90;;;;;;5073730;28;20035;-68
2023/01/22 06:08:22;;;;;;;28.38;17.65;;;1.00;99.90;;;;;;5073545;28;20062;-67
2023/01/22 06:10:48;;;;;;;31.25;18.98;;;1.00;99.90;;;;;;5073552;28;20051;-68
2023/01/22 06:13:13;;;;;;;30.13;18.33;;;1.00;99.90;;;;;;5071570;28;20484;-68
2023/01/22 06:15:39;;;;;;;29.80;19.90;;;1.00;99.90;;;;;;5073205;28;20029;-68
2023/01/22 06:18:04;;;;;;;26.00;18.33;;;1.00;99.90;;;;;;5072860;28;20031;-68
2023/01/22 06:20:30;;;;;;;27.73;18.15;;;1.00;99.90;;;;;;5073214;28;20024;-68
2023/01/22 06:22:56;;;;;;;28.13;18.95;;;1.00;99.90;;;;;;5072858;28;20032;-68
2023/01/22 06:25:21;;;;;;;27.00;17.67;;;1.00;99.90;;;;;;5072769;28;20031;-68
2023/01/22 06:27:47;;;;;;;27.42;18.23;;;1.00;99.90;;;;;;5073059;28;20039;-68
2023/01/22 06:30:13;;;;;;;30.98;19.42;;;1.00;99.90;;;;;;5072681;28;20447;-68
2023/01/22 06:32:38;;;;;;;30.73;18.90;;;0.90;99.90;;;;;;5073195;28;20394;-68
2023/01/22 06:35:04;;;;;;;29.80;18.52;;;0.90;99.90;;;;;;5072697;28;20388;-68
2023/01/22 06:37:30;;;;;;;28.17;18.15;;;0.90;99.90;;;;;;5073113;28;20423;-67
2023/01/22 06:39:55;;;;;;;28.73;17.70;;;1.00;99.90;;;;;;5072791;28;20106;-68
2023/01/22 06:42:21;;;;;;;26.58;17.30;;;1.00;99.90;;;;;;5072458;28;20516;-68
2023/01/22 06:44:49;;;;;;;28.30;18.00;;;0.90;99.90;;;;;;5072985;28;20057;-68
2023/01/22 06:47:15;;;;;;;26.17;17.05;;;0.90;99.90;;;;;;5072442;28;20421;-68
2023/01/22 06:49:40;;;;;;;24.92;16.85;;;0.90;99.90;;;;;;5072895;28;20052;-68
2023/01/22 06:52:06;;;;;;;25.13;16.02;;;1.00;99.90;;;;;;5072372;28;20035;-67
2023/01/22 06:54:32;;;;;;;23.13;14.73;;;1.00;99.90;;;;;;5071613;28;20410;-67
2023/01/22 06:56:57;;;;;;;24.33;15.18;;;0.90;99.90;;;;;;5072436;28;20040;-67
2023/01/22 06:59:23;;;;;;;24.05;15.35;;;0.90;99.90;;;;;;5072043;28;20024;-67
2023/01/22 07:01:48;;;;;;;25.08;15.75;;;0.90;99.90;;;;;;5072601;28;20060;-68
2023/01/22 07:04:14;;;;;;;23.20;15.07;;;0.90;99.90;;;;;;5071166;28;20028;-67
2023/01/22 07:06:40;;;;;;;20.77;13.80;;;0.90;99.90;;;;;;5072195;28;20028;-66
2023/01/22 07:09:05;;;;;;;21.85;13.73;;;0.90;99.90;;;;;;5070669;28;20105;-68
2023/01/22 07:11:31;;;;;;;22.77;14.52;;;0.90;99.90;;;;;;5072584;28;20031;-67
2023/01/22 07:13:57;;;;;;;22.05;13.68;;;0.90;99.90;;;;;;5072814;28;20461;-67
2023/01/22 07:16:22;;;;;;;20.95;13.05;;;0.90;99.90;;;;;;5054387;28;20439;-68
2023/01/22 07:18:48;;;;;;;21.67;13.88;;;0.90;99.90;;;;;;5072419;28;20039;-68
2023/01/22 07:21:14;;;;;;;24.27;15.13;;;0.90;99.90;;;;;;5071923;28;20078;-68
2023/01/22 07:23:40;;;;;;;22.48;13.63;;;0.90;99.90;;;;;;5072448;28;20102;-67
2023/01/22 07:26:06;;;;;;;24.73;14.07;;;0.90;99.90;;;;;;5072090;28;20020;-68
2023/01/22 07:28:32;;;;;;;22.20;13.57;;;0.90;99.90;;;;;;5072791;28;20033;-69
2023/01/22 07:30:58;;;;;;;21.73;13.65;;;0.90;99.90;;;;;;5071090;28;20029;-68
2023/01/22 07:33:23;;;;;;;23.05;13.52;;;0.90;99.90;;;;;;5071921;28;20350;-68
2023/01/22 07:35:56;;;;;;;22.08;12.88;;;0.90;99.90;;;;;;5072447;28;20039;-67
2023/01/22 07:38:25;;;;;;;19.13;12.48;;;0.90;99.90;;;;;;5070593;28;20381;-68
2023/01/22 07:40:50;;;;;;;18.73;12.38;;;0.90;99.90;;;;;;5070633;28;20489;-68
2023/01/22 07:43:16;;;;;;;20.83;12.27;;;0.90;99.90;;;;;;5071786;28;20146;-69
2023/01/22 07:45:42;;;;;;;18.60;11.73;;;0.90;99.90;;;;;;5072125;28;20480;-68
2023/01/22 07:48:09;;;;;;;18.55;12.27;;;0.90;99.90;;;;;;5071807;28;20032;-69
2023/01/22 07:50:38;;;;;;;18.90;12.07;;;0.90;99.90;;;;;;5072109;28;20056;-68
2023/01/22 07:53:05;;;;;;;23.90;14.13;;;0.90;99.90;;;;;;5071710;28;20039;-72
2023/01/22 07:55:31;;;;;;;18.40;11.95;;;0.90;99.90;;;;;;5074500;28;20021;-66
2023/01/22 07:58:02;;;;;;;20.98;12.52;;;0.90;99.90;;;;;;5072013;28;20432;-67
2023/01/22 08:00:28;;;;;;;;;;;0.90;99.90;;;;;;5072049;28;20031;-67
2023/01/22 08:02:54;;;;;;;20.15;11.70;;;0.90;99.90;;;;;;5071611;28;19912;-67
2023/01/22 08:05:20;;;;;;;19.50;12.43;;;0.90;99.90;;;;;;5071652;28;20020;-67
2023/01/22 08:07:45;;;;;;;19.50;12.80;;;0.80;99.90;;;;;;5072089;28;20024;-67
2023/01/22 08:10:13;;;;;;;20.08;12.43;;;0.90;99.90;;;;;;5071944;28;20021;-67
2023/01/22 08:12:40;;;;;;;20.35;12.50;;;0.90;99.90;;;;;;5071913;28;20094;-67
2023/01/22 08:15:06;;;;;;;20.45;12.43;;;0.90;99.90;;;;;;5071726;28;20032;-73
2023/01/22 08:17:32;;;;;;;18.48;11.25;;;0.90;99.90;;;;;;5073050;28;20033;-68
2023/01/22 08:19:57;;;;;;;17.42;11.43;;;0.90;99.90;;;;;;5075148;28;20017;-68
2023/01/22 08:22:23;;;;;;;19.60;11.57;;;0.90;99.90;;;;;;5073693;28;20426;-69
2023/01/22 08:24:48;;;;;;;15.65;10.20;;;0.90;99.90;;;;;;5075667;28;20408;-68
2023/01/22 08:27:15;;;;;;;14.20;9.70;;;1.00;99.90;;;;;;5073701;28;20052;-68
2023/01/22 08:29:40;;;;;;;16.65;10.52;;;1.00;99.90;;;;;;5075136;28;20062;-69
2023/01/22 08:32:06;;;;;;;16.63;10.50;;;0.90;99.90;;;;;;5073777;28;20064;-68
2023/01/22 08:34:32;;;;;;;15.85;9.80;;;0.90;99.90;;;;;;5073459;28;20035;-66
2023/01/22 08:36:57;;;;;;;15.82;9.52;;;1.00;99.90;;;;;;5075096;28;20020;-68
2023/01/22 08:39:23;;;;;;;16.98;10.23;;;1.00;99.90;;;;;;5074353;28;20044;-69
2023/01/22 08:41:51;;;;;;;13.45;8.38;;;1.00;99.90;;;;;;5074651;28;20119;-68
2023/01/22 08:44:16;;;;;;;14.43;8.80;;;1.00;99.90;;;;;;5073302;28;20021;-68
2023/01/22 08:46:42;;;;;;;14.27;9.00;;;1.00;99.90;;;;;;5074965;28;20034;-68
2023/01/22 08:49:08;;;;;;;16.45;8.85;;;1.00;99.90;;;;;;5074926;28;20028;-68
2023/01/22 08:51:34;;;;;;;14.45;7.93;;;1.00;99.90;;;;;;5074940;28;20354;-68
2023/01/22 08:54:00;;;;;;;13.48;8.13;;;1.00;99.90;;;;;;5074884;28;20404;-68
2023/01/22 08:56:25;;;;;;;12.82;8.10;;;0.90;99.90;;;;;;5074041;28;20025;-68
2023/01/22 08:58:51;;;;;;;11.68;7.90;;;1.00;99.90;;;;;;5076416;28;20024;-68
2023/01/22 09:01:18;;;;;;;12.13;7.55;;;1.00;99.90;;;;;;5078323;28;20432;-68
2023/01/22 09:03:44;;;;;;;12.10;7.55;;;1.00;99.90;;;;;;5075945;28;20094;-68
2023/01/22 09:06:10;;;;;;;13.93;8.30;;;1.10;99.90;;;;;;5074442;28;20029;-70
2023/01/22 09:08:36;;;;;;;13.40;8.45;;;1.00;99.90;;;;;;5074270;28;20024;-68
2023/01/22 09:11:05;;;;;;;11.10;7.93;;;1.10;99.90;;;;;;5073135;28;20028;-68
2023/01/22 09:13:31;;;;;;;12.07;8.38;;;1.10;99.90;;;;;;5073941;28;20122;-68
2023/01/22 09:15:57;;;;;;;12.45;7.93;;;1.10;99.90;;;;;;5074323;28;20079;-68
2023/01/22 09:18:24;;;;;;;12.43;8.20;;;1.10;99.90;;;;;;5073812;28;20033;-68
2023/01/22 09:20:49;;;;;;;11.27;7.60;;;1.10;99.90;;;;;;5074306;28;20081;-68
2023/01/22 09:23:15;;;;;;;13.23;7.78;;;1.10;99.90;;;;;;5073733;28;20111;-66
2023/01/22 09:25:41;;;;;;;14.05;9.02;;;1.10;99.90;;;;;;5074037;28;20028;-66
2023/01/22 09:28:08;;;;;;;14.52;9.30;;;1.10;99.90;;;;;;5073758;28;20042;-67
2023/01/22 09:30:34;;;;;;;15.23;9.10;;;1.10;99.90;;;;;;5073510;28;20024;-67
2023/01/22 09:33:01;;;;;;;12.95;7.95;;;1.20;99.90;;;;;;5073964;28;20050;-67
2023/01/22 09:35:27;;;;;;;15.07;9.10;;;1.20;99.90;;;;;;5073198;28;20034;-67
2023/01/22 09:37:53;;;;;;;16.95;9.77;;;1.20;99.90;;;;;;5073935;28;20033;-67
2023/01/22 09:40:43;;;;;;;15.07;9.77;;;1.20;99.90;;;;;;5073109;28;20051;-67
2023/01/22 09:43:34;;;;;;;14.82;9.57;;;1.20;99.90;;;;;;5073933;28;20388;-67
2023/01/22 09:46:15;;;;;;;16.52;9.85;;;1.20;99.90;;;;;;5073937;28;20048;-68
2023/01/22 09:48:45;;;;;;;18.45;11.15;;;1.20;99.90;;;;;;5073675;28;20028;-68
2023/01/22 09:51:15;;;;;;;17.70;10.75;;;1.20;99.90;;;;;;5072418;28;20031;-68
2023/01/22 09:53:42;;;;;;;17.60;10.60;;;1.30;99.90;;;;;;5073588;28;20082;-68
2023/01/22 09:56:19;;;;;;;18.55;10.10;;;1.30;99.90;;;;;;5073677;28;20104;-68
2023/01/22 09:58:48;;;;;;;14.48;9.68;;;1.30;99.90;;;;;;5074670;28;20491;-68
2023/01/22 10:01:15;;;;;;;18.17;10.57;;;1.30;99.90;;;;;;5092746;28;20062;-69
2023/01/22 10:03:52;;;;;;;19.65;10.60;;;1.30;99.90;;;;;;5093751;28;20085;-68
2023/01/22 10:06:22;;;;;;;15.38;10.48;;;1.30;99.90;;;;;;5093126;28;20077;-68
2023/01/22 10:09:08;;;;;;;16.90;10.55;;;1.30;99.90;;;;;;5093681;28;20021;-68
2023/01/22 10:11:35;;;;;;;16.10;10.10;;;1.40;99.90;;;;;;5093225;28;20089;-68
2023/01/22 10:14:04;;;;;;;15.95;10.35;;;1.40;99.90;;;;;;5075568;28;20047;-68
2023/01/22 10:16:30;;;;;;;15.60;10.45;;;1.40;99.90;;;;;;5093163;28;20056;-68
2023/01/22 10:19:22;;;;;;;16.20;10.48;;;1.40;99.90;;;;;;5093610;28;20045;-68
2023/01/22 10:21:57;;;;;;;16.05;9.77;;;1.50;99.90;;;;;;5093589;28;20387;-68
2023/01/22 10:24:23;;;;;;;14.27;8.98;;;1.50;99.90;;;;;;5093009;28;20035;-68
2023/01/22 10:26:53;;;;;;;16.08;9.95;;;1.50;99.90;;;;;;5093646;28;20028;-67
2023/01/22 10:29:27;;;;;;;14.02;9.70;;;1.50;99.90;;;;;;5092895;28;20022;-68
2023/01/22 10:32:00;;;;;;;15.93;9.73;;;1.50;99.90;;;;;;5093152;28;20043;-67
2023/01/22 10:34:35;;;;;;;16.40;9.88;;;1.50;99.90;;;;;;5092718;28;20066;-67
2023/01/22 10:37:17;;;;;;;14.07;9.68;;;1.50;99.90;;;;;;5093174;28;20354;-67
2023/01/22 10:39:47;;;;;;;16.45;10.23;;;1.50;99.90;;;;;;5092293;28;20059;-68
2023/01/22 10:42:21;;;;;;;15.57;9.18;;;1.50;99.90;;;;;;5092949;28;20202;-68
2023/01/22 10:44:49;;;;;;;15.05;9.68;;;1.60;99.90;;;;;;5093093;28;20067;-67
2023/01/22 10:47:21;;;;;;;17.60;10.20;;;1.60;99.90;;;;;;5092715;28;20028;-66
2023/01/22 10:50:21;;;;;;;18.17;10.07;;;1.60;99.90;;;;;;5093052;28;20020;-67
2023/01/22 10:52:52;;;;;;;15.55;9.88;;;1.60;99.90;;;;;;5092604;28;20086;-67
2023/01/22 10:55:29;;;;;;;14.88;10.15;;;1.60;99.90;;;;;;5092588;28;20477;-67
2023/01/22 10:58:11;;;;;;;15.32;10.25;;;1.60;99.90;;;;;;5093067;28;20077;-67
2023/01/22 11:00:38;;;;;;;12.90;9.30;;;1.70;99.90;;;;;;5092206;28;20020;-67
2023/01/22 11:03:21;;;;;;;15.98;9.27;;;1.70;99.90;;;;;;5091429;28;20040;-66
2023/01/22 11:05:49;;;;;;;13.15;8.85;;;1.70;99.90;;;;;;5085215;28;20057;-67
2023/01/22 11:08:18;;;;;;;15.88;9.70;;;1.80;99.90;;;;;;5071287;28;20404;-66
2023/01/22 11:10:54;;;;;;;14.00;9.10;;;1.80;99.90;;;;;;5072613;28;20029;-67
2023/01/22 11:13:25;;;;;;;13.93;9.10;;;1.80;99.90;;;;;;5072142;28;20074;-69
2023/01/22 11:16:15;;;;;;;13.77;8.88;;;1.90;99.90;;;;;;5072539;28;20023;-67
2023/01/22 11:19:04;;;;;;;15.00;9.25;;;1.90;99.90;;;;;;5072133;28;20020;-67
2023/01/22 11:21:36;;;;;;;12.35;8.18;;;1.90;99.90;;;;;;5072051;28;20028;-67
2023/01/22 11:24:11;;;;;;;12.75;8.82;;;1.90;99.90;;;;;;5072295;28;20052;-67
2023/01/22 11:27:12;;;;;;;13.05;8.65;;;1.90;99.90;;;;;;5071975;28;20020;-67
2023/01/22 11:29:56;;;;;;;13.02;7.57;;;1.90;99.90;;;;;;5063805;28;20037;-67
2023/01/22 11:33:05;;;;;;;12.65;8.25;;;1.90;99.90;;;;;;5071697;28;20469;-67
2023/01/22 11:35:46;;;;;;;14.55;8.35;;;2.00;99.90;;;;;;5037747;28;20154;-67
2023/01/22 11:38:17;;;;;;;13.07;7.70;;;2.00;99.90;;;;;;5072191;28;20048;-67
2023/01/22 11:41:07;;;;;;;12.60;7.57;;;2.10;99.90;;;;;;5071904;28;20052;-67
2023/01/22 11:43:54;;;;;;;12.30;7.90;;;2.10;99.90;;;;;;5071767;28;20465;-67
2023/01/22 11:47:01;;;;;;;11.10;7.78;;;2.00;99.90;;;;;;5072222;28;20033;-67
2023/01/22 11:49:44;;;;;;;12.60;7.60;;;2.00;99.90;;;;;;5071804;28;20517;-67
2023/01/22 11:52:29;;;;;;;12.30;8.15;;;2.10;99.90;;;;;;5074270;28;20032;-67
2023/01/22 11:55:07;;;;;;;13.48;7.13;;;2.10;99.90;;;;;;5076068;28;20028;-66
2023/01/22 11:57:37;;;;;;;11.82;7.68;;;2.10;99.90;;;;;;5075452;28;20024;-67
2023/01/22 12:00:28;;;;;;;13.38;8.18;;;2.10;99.90;;;;;;5075779;28;20024;-67
2023/01/22 12:03:15;;;;;;;11.85;7.80;;;2.10;99.90;;;;;;5075298;28;20542;-66
2023/01/22 12:06:02;;;;;;;13.07;8.48;;;2.20;99.90;;;;;;5074974;28;20067;-67
2023/01/22 12:08:52;;;;;;;13.38;8.45;;;2.20;99.90;;;;;;5079822;28;20016;-66
2023/01/22 12:11:18;;;;;;;11.85;7.90;;;2.20;99.90;;;;;;5096171;28;20032;-66
2023/01/22 12:14:13;;;;;;;12.32;8.45;;;2.20;99.90;;;;;;5095103;28;20038;-66
2023/01/22 12:16:51;;;;;;;12.55;8.98;;;2.30;99.90;;;;;;5095444;28;20024;-68
2023/01/22 12:19:35;;;;;;;15.02;9.82;;;2.20;99.90;;;;;;5095562;28;20032;-66
2023/01/22 12:22:54;;;;;;;15.70;9.65;;;2.20;99.90;;;;;;5095601;28;20036;-67
2023/01/22 12:25:28;;;;;;;14.40;9.30;;;2.20;99.90;;;;;;5033255;28;20063;-68
2023/01/22 12:27:58;;;;;;;16.33;9.35;;;2.20;99.90;;;;;;5093919;28;20500;-68
2023/01/22 12:30:27;;;;;;;13.35;9.13;;;2.20;99.90;;;;;;5095362;28;20357;-69
2023/01/22 12:32:58;;;;;;;16.08;10.20;;;2.20;99.90;;;;;;5095323;28;20055;-67
2023/01/22 12:35:26;;;;;;;14.80;10.65;;;2.20;99.90;;;;;;5096191;28;20120;-66
2023/01/22 12:37:58;;;;;;;15.60;10.55;;;2.10;99.90;;;;;;5095433;28;20028;-69
2023/01/22 12:40:55;;;;;;;17.77;11.48;;;2.10;99.90;;;;;;5095106;28;20055;-67
2023/01/22 12:43:46;;;;;;;14.38;10.15;;;2.10;99.90;;;;;;5095247;28;20040;-67
2023/01/22 12:46:41;;;;;;;16.02;10.98;;;2.10;99.90;;;;;;5083880;28;20452;-67
2023/01/22 12:49:15;;;;;;;17.42;10.88;;;2.10;99.90;;;;;;5094986;28;20067;-67
2023/01/22 12:51:50;;;;;;;17.30;11.63;;;2.00;99.90;;;;;;5094687;28;20119;-68
2023/01/22 12:54:24;;;;;;;16.35;10.45;;;2.00;99.90;;;;;;5093900;28;20056;-66
2023/01/22 12:57:10;;;;;;;16.25;10.57;;;2.00;99.90;;;;;;5093263;28;20060;-67
2023/01/22 12:59:44;;;;;;;16.10;10.32;;;2.00;99.90;;;;;;5094512;28;20095;-67